sensor_id;sensor_type;location;lat;lon;timestamp;P1;durP1;ratioP1;P2;durP2;ratioP2
77938;SDS011;67136;47.546;21.630;2023-04-03T00:00:01;6.07;;;2.20;;
77938;SDS011;67136;47.546;21.630;2023-04-03T00:03:07;2.73;;;1.90;;
77938;SDS011;67136;47.546;21.630;2023-04-03T00:06:10;3.00;;;1.80;;
77938;SDS011;67136;47.546;21.630;2023-04-03T00:09:13;6.75;;;1.60;;
77938;SDS011;67136;47.546;21.630;2023-04-03T00:12:16;2.75;;;1.70;;
77938;SDS011;67136;47.546;21.630;2023-04-03T00:15:19;2.28;;;1.62;;
77938;SDS011;67136;47.546;21.630;2023-04-03T00:18:22;3.00;;;1.73;;
77938;SDS011;67136;47.546;21.630;2023-04-03T00:21:24;3.83;;;1.85;;
77938;SDS011;67136;47.546;21.630;2023-04-03T00:24:28;4.75;;;1.62;;
77938;SDS011;67136;47.546;21.630;2023-04-03T00:27:30;3.00;;;1.70;;
77938;SDS011;67136;47.546;21.630;2023-04-03T00:30:33;2.70;;;1.60;;
77938;SDS011;67136;47.546;21.630;2023-04-03T00:33:36;2.87;;;1.40;;
77938;SDS011;67136;47.546;21.630;2023-04-03T00:36:39;2.95;;;1.58;;
77938;SDS011;67136;47.546;21.630;2023-04-03T00:39:42;4.03;;;1.42;;
77938;SDS011;67136;47.546;21.630;2023-04-03T00:42:45;2.67;;;1.70;;
77938;SDS011;67136;47.546;21.630;2023-04-03T00:45:51;3.00;;;1.70;;
77938;SDS011;67136;47.546;21.630;2023-04-03T00:48:55;4.27;;;1.47;;
77938;SDS011;67136;47.546;21.630;2023-04-03T00:51:57;4.05;;;1.73;;
77938;SDS011;67136;47.546;21.630;2023-04-03T00:55:02;4.32;;;1.70;;
77938;SDS011;67136;47.546;21.630;2023-04-03T00:58:08;7.57;;;1.70;;
77938;SDS011;67136;47.546;21.630;2023-04-03T01:01:12;5.40;;;1.80;;
77938;SDS011;67136;47.546;21.630;2023-04-03T01:04:31;5.00;;;1.43;;
77938;SDS011;67136;47.546;21.630;2023-04-03T01:07:42;2.53;;;1.40;;
77938;SDS011;67136;47.546;21.630;2023-04-03T01:10:44;3.75;;;1.75;;
77938;SDS011;67136;47.546;21.630;2023-04-03T01:13:48;3.25;;;1.60;;
77938;SDS011;67136;47.546;21.630;2023-04-03T01:16:52;3.70;;;1.20;;
77938;SDS011;67136;47.546;21.630;2023-04-03T01:26:29;2.55;;;1.50;;
77938;SDS011;67136;47.546;21.630;2023-04-03T01:29:32;6.03;;;1.45;;
77938;SDS011;67136;47.546;21.630;2023-04-03T01:32:35;11.48;;;1.70;;
77938;SDS011;67136;47.546;21.630;2023-04-03T01:35:38;4.10;;;1.47;;
77938;SDS011;67136;47.546;21.630;2023-04-03T01:38:41;2.62;;;1.55;;
77938;SDS011;67136;47.546;21.630;2023-04-03T01:41:43;9.75;;;1.52;;
77938;SDS011;67136;47.546;21.630;2023-04-03T01:44:46;7.50;;;2.00;;
77938;SDS011;67136;47.546;21.630;2023-04-03T01:47:49;5.43;;;1.90;;
77938;SDS011;67136;47.546;21.630;2023-04-03T01:50:53;3.60;;;1.70;;
77938;SDS011;67136;47.546;21.630;2023-04-03T01:53:56;4.28;;;2.00;;
77938;SDS011;67136;47.546;21.630;2023-04-03T01:56:59;6.37;;;1.80;;
77938;SDS011;67136;47.546;21.630;2023-04-03T02:00:01;2.72;;;1.77;;
77938;SDS011;67136;47.546;21.630;2023-04-03T02:03:13;6.62;;;1.20;;
77938;SDS011;67136;47.546;21.630;2023-04-03T02:06:17;7.27;;;1.60;;
77938;SDS011;67136;47.546;21.630;2023-04-03T02:09:19;4.68;;;1.40;;
77938;SDS011;67136;47.546;21.630;2023-04-03T02:12:23;2.30;;;1.50;;
77938;SDS011;67136;47.546;21.630;2023-04-03T02:15:25;2.00;;;1.17;;
77938;SDS011;67136;47.546;21.630;2023-04-03T02:18:28;2.05;;;1.10;;
77938;SDS011;67136;47.546;21.630;2023-04-03T02:21:31;2.27;;;1.27;;
77938;SDS011;67136;47.546;21.630;2023-04-03T02:24:34;2.58;;;1.15;;
77938;SDS011;67136;47.546;21.630;2023-04-03T02:27:36;2.58;;;1.23;;
77938;SDS011;67136;47.546;21.630;2023-04-03T02:30:39;1.83;;;1.00;;
77938;SDS011;67136;47.546;21.630;2023-04-03T02:33:41;3.55;;;0.98;;
77938;SDS011;67136;47.546;21.630;2023-04-03T02:36:45;4.50;;;1.33;;
77938;SDS011;67136;47.546;21.630;2023-04-03T02:39:48;1.85;;;1.10;;
77938;SDS011;67136;47.546;21.630;2023-04-03T02:42:51;2.28;;;1.25;;
77938;SDS011;67136;47.546;21.630;2023-04-03T02:45:53;2.80;;;1.23;;
77938;SDS011;67136;47.546;21.630;2023-04-03T02:48:56;2.08;;;1.10;;
77938;SDS011;67136;47.546;21.630;2023-04-03T02:51:59;1.87;;;1.03;;
77938;SDS011;67136;47.546;21.630;2023-04-03T02:55:02;3.60;;;1.10;;
77938;SDS011;67136;47.546;21.630;2023-04-03T02:58:05;1.37;;;0.90;;
77938;SDS011;67136;47.546;21.630;2023-04-03T03:01:11;1.98;;;1.17;;
77938;SDS011;67136;47.546;21.630;2023-04-03T03:04:14;2.20;;;0.98;;
77938;SDS011;67136;47.546;21.630;2023-04-03T03:07:17;1.50;;;1.00;;
77938;SDS011;67136;47.546;21.630;2023-04-03T03:10:19;2.42;;;1.08;;
77938;SDS011;67136;47.546;21.630;2023-04-03T03:13:22;1.98;;;1.10;;
77938;SDS011;67136;47.546;21.630;2023-04-03T03:16:24;2.08;;;0.75;;
77938;SDS011;67136;47.546;21.630;2023-04-03T03:19:27;4.72;;;1.05;;
77938;SDS011;67136;47.546;21.630;2023-04-03T03:22:32;2.50;;;1.10;;
77938;SDS011;67136;47.546;21.630;2023-04-03T03:25:39;2.42;;;1.12;;
77938;SDS011;67136;47.546;21.630;2023-04-03T03:28:42;2.12;;;0.98;;
77938;SDS011;67136;47.546;21.630;2023-04-03T03:31:45;2.97;;;1.00;;
77938;SDS011;67136;47.546;21.630;2023-04-03T03:34:48;2.08;;;1.23;;
77938;SDS011;67136;47.546;21.630;2023-04-03T03:37:50;2.43;;;1.10;;
77938;SDS011;67136;47.546;21.630;2023-04-03T03:40:53;1.50;;;0.90;;
77938;SDS011;67136;47.546;21.630;2023-04-03T03:43:57;1.67;;;0.93;;
77938;SDS011;67136;47.546;21.630;2023-04-03T03:47:01;1.87;;;0.93;;
77938;SDS011;67136;47.546;21.630;2023-04-03T03:50:05;1.73;;;0.90;;
77938;SDS011;67136;47.546;21.630;2023-04-03T03:53:08;2.93;;;0.97;;
77938;SDS011;67136;47.546;21.630;2023-04-03T03:56:12;1.50;;;0.70;;
77938;SDS011;67136;47.546;21.630;2023-04-03T03:59:15;1.70;;;1.02;;
77938;SDS011;67136;47.546;21.630;2023-04-03T04:02:19;1.60;;;1.00;;
77938;SDS011;67136;47.546;21.630;2023-04-03T04:05:22;3.47;;;1.08;;
77938;SDS011;67136;47.546;21.630;2023-04-03T04:08:26;2.27;;;1.10;;
77938;SDS011;67136;47.546;21.630;2023-04-03T04:11:29;2.20;;;1.20;;
77938;SDS011;67136;47.546;21.630;2023-04-03T04:14:32;3.83;;;1.17;;
77938;SDS011;67136;47.546;21.630;2023-04-03T04:17:35;1.80;;;0.90;;
77938;SDS011;67136;47.546;21.630;2023-04-03T04:20:38;2.33;;;1.20;;
77938;SDS011;67136;47.546;21.630;2023-04-03T04:23:42;2.67;;;1.37;;
77938;SDS011;67136;47.546;21.630;2023-04-03T04:26:44;1.65;;;0.90;;
77938;SDS011;67136;47.546;21.630;2023-04-03T04:29:47;2.22;;;1.25;;
77938;SDS011;67136;47.546;21.630;2023-04-03T04:32:51;3.03;;;1.25;;
77938;SDS011;67136;47.546;21.630;2023-04-03T04:35:54;2.28;;;1.20;;
77938;SDS011;67136;47.546;21.630;2023-04-03T04:38:57;2.53;;;0.70;;
77938;SDS011;67136;47.546;21.630;2023-04-03T04:42:01;4.90;;;1.30;;
77938;SDS011;67136;47.546;21.630;2023-04-03T04:45:04;2.67;;;1.10;;
77938;SDS011;67136;47.546;21.630;2023-04-03T04:48:07;1.50;;;0.90;;
77938;SDS011;67136;47.546;21.630;2023-04-03T04:51:11;1.90;;;0.98;;
77938;SDS011;67136;47.546;21.630;2023-04-03T04:54:14;1.70;;;0.77;;
77938;SDS011;67136;47.546;21.630;2023-04-03T04:57:17;1.52;;;0.70;;
77938;SDS011;67136;47.546;21.630;2023-04-03T05:00:21;3.42;;;0.88;;
77938;SDS011;67136;47.546;21.630;2023-04-03T05:03:23;3.33;;;0.80;;
77938;SDS011;67136;47.546;21.630;2023-04-03T05:08:48;1.27;;;0.63;;
77938;SDS011;67136;47.546;21.630;2023-04-03T05:11:52;3.10;;;0.60;;
77938;SDS011;67136;47.546;21.630;2023-04-03T05:14:55;1.95;;;0.60;;
77938;SDS011;67136;47.546;21.630;2023-04-03T05:17:58;2.00;;;0.75;;
77938;SDS011;67136;47.546;21.630;2023-04-03T05:21:01;4.28;;;0.55;;
77938;SDS011;67136;47.546;21.630;2023-04-03T05:24:05;1.37;;;0.60;;
77938;SDS011;67136;47.546;21.630;2023-04-03T05:27:12;1.20;;;0.40;;
77938;SDS011;67136;47.546;21.630;2023-04-03T05:30:16;2.42;;;0.60;;
77938;SDS011;67136;47.546;21.630;2023-04-03T05:33:20;0.93;;;0.50;;
77938;SDS011;67136;47.546;21.630;2023-04-03T05:36:23;1.23;;;0.60;;
77938;SDS011;67136;47.546;21.630;2023-04-03T05:39:27;1.47;;;0.57;;
77938;SDS011;67136;47.546;21.630;2023-04-03T05:42:31;1.37;;;0.60;;
77938;SDS011;67136;47.546;21.630;2023-04-03T05:45:34;2.62;;;0.60;;
77938;SDS011;67136;47.546;21.630;2023-04-03T05:48:37;1.70;;;0.60;;
77938;SDS011;67136;47.546;21.630;2023-04-03T05:51:41;2.47;;;0.50;;
77938;SDS011;67136;47.546;21.630;2023-04-03T05:54:45;9.00;;;0.90;;
77938;SDS011;67136;47.546;21.630;2023-04-03T05:57:51;1.00;;;0.60;;
77938;SDS011;67136;47.546;21.630;2023-04-03T06:00:54;2.95;;;0.65;;
77938;SDS011;67136;47.546;21.630;2023-04-03T06:03:57;4.37;;;0.85;;
77938;SDS011;67136;47.546;21.630;2023-04-03T06:07:01;2.80;;;0.65;;
77938;SDS011;67136;47.546;21.630;2023-04-03T06:10:04;4.07;;;0.53;;
77938;SDS011;67136;47.546;21.630;2023-04-03T06:13:08;4.17;;;0.90;;
77938;SDS011;67136;47.546;21.630;2023-04-03T06:16:11;3.33;;;0.60;;
77938;SDS011;67136;47.546;21.630;2023-04-03T06:19:18;2.75;;;0.60;;
77938;SDS011;67136;47.546;21.630;2023-04-03T06:22:22;11.18;;;0.52;;
77938;SDS011;67136;47.546;21.630;2023-04-03T06:25:25;4.23;;;0.50;;
77938;SDS011;67136;47.546;21.630;2023-04-03T06:28:28;4.33;;;0.70;;
77938;SDS011;67136;47.546;21.630;2023-04-03T06:31:31;2.67;;;0.60;;
77938;SDS011;67136;47.546;21.630;2023-04-03T06:34:34;2.00;;;0.45;;
77938;SDS011;67136;47.546;21.630;2023-04-03T06:37:37;2.15;;;0.80;;
77938;SDS011;67136;47.546;21.630;2023-04-03T06:40:40;2.17;;;0.40;;
77938;SDS011;67136;47.546;21.630;2023-04-03T06:43:43;2.63;;;0.60;;
77938;SDS011;67136;47.546;21.630;2023-04-03T06:46:47;2.65;;;0.60;;
77938;SDS011;67136;47.546;21.630;2023-04-03T06:49:50;3.00;;;0.60;;
77938;SDS011;67136;47.546;21.630;2023-04-03T06:52:53;1.98;;;0.68;;
77938;SDS011;67136;47.546;21.630;2023-04-03T06:55:56;2.57;;;0.73;;
77938;SDS011;67136;47.546;21.630;2023-04-03T06:58:58;1.97;;;0.63;;
77938;SDS011;67136;47.546;21.630;2023-04-03T07:02:01;4.78;;;0.52;;
77938;SDS011;67136;47.546;21.630;2023-04-03T07:05:05;6.35;;;0.88;;
77938;SDS011;67136;47.546;21.630;2023-04-03T07:08:08;2.20;;;0.80;;
77938;SDS011;67136;47.546;21.630;2023-04-03T07:11:11;6.97;;;0.83;;
77938;SDS011;67136;47.546;21.630;2023-04-03T07:14:14;4.43;;;0.70;;
77938;SDS011;67136;47.546;21.630;2023-04-03T07:17:17;14.52;;;1.27;;
77938;SDS011;67136;47.546;21.630;2023-04-03T07:20:20;6.07;;;0.70;;
77938;SDS011;67136;47.546;21.630;2023-04-03T07:23:22;7.57;;;0.98;;
77938;SDS011;67136;47.546;21.630;2023-04-03T07:26:25;5.90;;;0.67;;
77938;SDS011;67136;47.546;21.630;2023-04-03T07:29:27;1.83;;;0.40;;
77938;SDS011;67136;47.546;21.630;2023-04-03T07:32:30;5.30;;;0.43;;
77938;SDS011;67136;47.546;21.630;2023-04-03T07:35:33;5.55;;;0.60;;
77938;SDS011;67136;47.546;21.630;2023-04-03T07:38:36;8.18;;;0.75;;
77938;SDS011;67136;47.546;21.630;2023-04-03T07:41:39;6.75;;;0.70;;
77938;SDS011;67136;47.546;21.630;2023-04-03T07:44:42;7.20;;;0.50;;
77938;SDS011;67136;47.546;21.630;2023-04-03T07:47:45;20.27;;;1.00;;
77938;SDS011;67136;47.546;21.630;2023-04-03T07:50:48;10.13;;;0.57;;
77938;SDS011;67136;47.546;21.630;2023-04-03T07:53:51;10.85;;;1.05;;
77938;SDS011;67136;47.546;21.630;2023-04-03T07:56:53;9.73;;;2.08;;
77938;SDS011;67136;47.546;21.630;2023-04-03T07:59:56;7.83;;;0.70;;
77938;SDS011;67136;47.546;21.630;2023-04-03T08:02:58;7.50;;;0.70;;
77938;SDS011;67136;47.546;21.630;2023-04-03T08:06:02;4.85;;;0.75;;
77938;SDS011;67136;47.546;21.630;2023-04-03T08:09:13;16.45;;;1.00;;
77938;SDS011;67136;47.546;21.630;2023-04-03T08:12:17;13.90;;;0.80;;
77938;SDS011;67136;47.546;21.630;2023-04-03T08:15:20;8.20;;;0.60;;
77938;SDS011;67136;47.546;21.630;2023-04-03T08:18:23;10.40;;;0.70;;
77938;SDS011;67136;47.546;21.630;2023-04-03T08:21:26;15.02;;;1.20;;
77938;SDS011;67136;47.546;21.630;2023-04-03T08:24:29;16.50;;;2.10;;
77938;SDS011;67136;47.546;21.630;2023-04-03T08:27:31;19.70;;;1.23;;
77938;SDS011;67136;47.546;21.630;2023-04-03T08:30:40;15.00;;;1.63;;
77938;SDS011;67136;47.546;21.630;2023-04-03T08:33:44;10.35;;;0.75;;
77938;SDS011;67136;47.546;21.630;2023-04-03T08:36:47;5.28;;;1.00;;
77938;SDS011;67136;47.546;21.630;2023-04-03T08:39:50;9.98;;;0.60;;
77938;SDS011;67136;47.546;21.630;2023-04-03T08:45:59;18.70;;;1.27;;
77938;SDS011;67136;47.546;21.630;2023-04-03T08:49:07;24.35;;;1.80;;
77938;SDS011;67136;47.546;21.630;2023-04-03T08:55:46;16.62;;;1.10;;
77938;SDS011;67136;47.546;21.630;2023-04-03T08:58:57;10.68;;;1.20;;
77938;SDS011;67136;47.546;21.630;2023-04-03T09:02:04;7.73;;;1.10;;
77938;SDS011;67136;47.546;21.630;2023-04-03T09:05:16;11.45;;;1.55;;
77938;SDS011;67136;47.546;21.630;2023-04-03T09:08:31;15.85;;;1.80;;
77938;SDS011;67136;47.546;21.630;2023-04-03T09:18:32;22.53;;;1.50;;
77938;SDS011;67136;47.546;21.630;2023-04-03T09:21:44;18.55;;;1.83;;
77938;SDS011;67136;47.546;21.630;2023-04-03T09:24:47;11.77;;;0.90;;
77938;SDS011;67136;47.546;21.630;2023-04-03T09:27:55;16.58;;;1.58;;
77938;SDS011;67136;47.546;21.630;2023-04-03T09:30:59;23.10;;;1.58;;
77938;SDS011;67136;47.546;21.630;2023-04-03T09:34:04;17.87;;;1.10;;
77938;SDS011;67136;47.546;21.630;2023-04-03T09:37:11;17.98;;;1.75;;
77938;SDS011;67136;47.546;21.630;2023-04-03T09:40:44;16.98;;;1.40;;
77938;SDS011;67136;47.546;21.630;2023-04-03T09:43:52;13.85;;;1.17;;
77938;SDS011;67136;47.546;21.630;2023-04-03T09:46:56;15.23;;;1.42;;
77938;SDS011;67136;47.546;21.630;2023-04-03T09:56:37;20.27;;;1.25;;
77938;SDS011;67136;47.546;21.630;2023-04-03T10:00:01;14.20;;;1.70;;
77938;SDS011;67136;47.546;21.630;2023-04-03T10:03:23;18.02;;;1.23;;
77938;SDS011;67136;47.546;21.630;2023-04-03T10:06:35;3.60;;;0.80;;
77938;SDS011;67136;47.546;21.630;2023-04-03T10:09:54;11.93;;;0.98;;
77938;SDS011;67136;47.546;21.630;2023-04-03T10:13:06;9.13;;;0.88;;
77938;SDS011;67136;47.546;21.630;2023-04-03T10:16:26;11.32;;;1.05;;
77938;SDS011;67136;47.546;21.630;2023-04-03T10:19:36;8.77;;;1.00;;
77938;SDS011;67136;47.546;21.630;2023-04-03T10:29:19;14.48;;;0.90;;
77938;SDS011;67136;47.546;21.630;2023-04-03T10:36:33;12.60;;;1.08;;
77938;SDS011;67136;47.546;21.630;2023-04-03T10:47:02;13.35;;;1.58;;
77938;SDS011;67136;47.546;21.630;2023-04-03T10:53:58;13.57;;;1.60;;
77938;SDS011;67136;47.546;21.630;2023-04-03T10:57:09;15.30;;;1.20;;
77938;SDS011;67136;47.546;21.630;2023-04-03T11:00:20;11.32;;;1.15;;
77938;SDS011;67136;47.546;21.630;2023-04-03T11:03:33;16.65;;;1.40;;
77938;SDS011;67136;47.546;21.630;2023-04-03T11:06:44;8.98;;;1.08;;
77938;SDS011;67136;47.546;21.630;2023-04-03T11:09:57;11.05;;;1.00;;
77938;SDS011;67136;47.546;21.630;2023-04-03T11:16:21;12.07;;;1.20;;
77938;SDS011;67136;47.546;21.630;2023-04-03T11:19:34;21.05;;;1.50;;
77938;SDS011;67136;47.546;21.630;2023-04-03T11:22:42;20.02;;;1.42;;
77938;SDS011;67136;47.546;21.630;2023-04-03T11:25:50;13.13;;;1.15;;
77938;SDS011;67136;47.546;21.630;2023-04-03T11:28:58;19.07;;;1.30;;
77938;SDS011;67136;47.546;21.630;2023-04-03T11:35:18;11.02;;;1.45;;
77938;SDS011;67136;47.546;21.630;2023-04-03T11:45:50;13.90;;;1.53;;
77938;SDS011;67136;47.546;21.630;2023-04-03T11:49:03;6.90;;;1.02;;
77938;SDS011;67136;47.546;21.630;2023-04-03T11:52:09;12.02;;;1.17;;
77938;SDS011;67136;47.546;21.630;2023-04-03T11:58:32;11.27;;;1.10;;
77938;SDS011;67136;47.546;21.630;2023-04-03T12:05:24;16.05;;;1.20;;
77938;SDS011;67136;47.546;21.630;2023-04-03T12:08:38;14.95;;;1.60;;
77938;SDS011;67136;47.546;21.630;2023-04-03T12:11:49;14.00;;;1.42;;
77938;SDS011;67136;47.546;21.630;2023-04-03T12:14:52;24.58;;;1.65;;
77938;SDS011;67136;47.546;21.630;2023-04-03T12:17:54;21.83;;;1.40;;
77938;SDS011;67136;47.546;21.630;2023-04-03T12:20:57;16.95;;;1.50;;
77938;SDS011;67136;47.546;21.630;2023-04-03T12:24:03;19.73;;;1.42;;
77938;SDS011;67136;47.546;21.630;2023-04-03T12:27:11;18.98;;;1.87;;
77938;SDS011;67136;47.546;21.630;2023-04-03T12:30:21;21.55;;;1.70;;
77938;SDS011;67136;47.546;21.630;2023-04-03T12:33:36;15.73;;;1.93;;
77938;SDS011;67136;47.546;21.630;2023-04-03T12:36:49;14.68;;;3.35;;
77938;SDS011;67136;47.546;21.630;2023-04-03T12:40:07;12.68;;;1.33;;
77938;SDS011;67136;47.546;21.630;2023-04-03T12:46:48;16.45;;;1.70;;
77938;SDS011;67136;47.546;21.630;2023-04-03T12:49:53;24.27;;;1.70;;
77938;SDS011;67136;47.546;21.630;2023-04-03T12:52:59;21.85;;;2.05;;
77938;SDS011;67136;47.546;21.630;2023-04-03T12:59:34;21.20;;;1.70;;
77938;SDS011;67136;47.546;21.630;2023-04-03T13:02:38;22.13;;;2.40;;
77938;SDS011;67136;47.546;21.630;2023-04-03T13:05:47;12.37;;;1.60;;
77938;SDS011;67136;47.546;21.630;2023-04-03T13:08:57;8.65;;;1.50;;
77938;SDS011;67136;47.546;21.630;2023-04-03T13:12:12;21.42;;;2.30;;
77938;SDS011;67136;47.546;21.630;2023-04-03T13:15:20;10.15;;;1.37;;
77938;SDS011;67136;47.546;21.630;2023-04-03T13:18:32;15.25;;;1.70;;
77938;SDS011;67136;47.546;21.630;2023-04-03T13:21:36;24.47;;;2.97;;
77938;SDS011;67136;47.546;21.630;2023-04-03T13:24:39;25.73;;;2.12;;
77938;SDS011;67136;47.546;21.630;2023-04-03T13:27:42;14.27;;;2.35;;
77938;SDS011;67136;47.546;21.630;2023-04-03T13:30:59;14.18;;;1.60;;
77938;SDS011;67136;47.546;21.630;2023-04-03T13:34:15;16.70;;;2.20;;
77938;SDS011;67136;47.546;21.630;2023-04-03T13:37:31;15.17;;;2.10;;
77938;SDS011;67136;47.546;21.630;2023-04-03T13:40:46;17.73;;;2.00;;
77938;SDS011;67136;47.546;21.630;2023-04-03T13:43:51;27.20;;;2.75;;
77938;SDS011;67136;47.546;21.630;2023-04-03T13:53:15;9.33;;;2.00;;
77938;SDS011;67136;47.546;21.630;2023-04-03T13:56:19;7.60;;;1.40;;
77938;SDS011;67136;47.546;21.630;2023-04-03T13:59:30;21.05;;;2.40;;
77938;SDS011;67136;47.546;21.630;2023-04-03T14:02:34;17.35;;;2.78;;
77938;SDS011;67136;47.546;21.630;2023-04-03T14:05:37;9.75;;;1.35;;
77938;SDS011;67136;47.546;21.630;2023-04-03T14:08:40;23.97;;;2.03;;
77938;SDS011;67136;47.546;21.630;2023-04-03T14:11:46;15.85;;;2.80;;
77938;SDS011;67136;47.546;21.630;2023-04-03T14:14:52;26.87;;;2.42;;
77938;SDS011;67136;47.546;21.630;2023-04-03T14:17:55;13.85;;;1.80;;
77938;SDS011;67136;47.546;21.630;2023-04-03T14:20:58;12.68;;;1.70;;
77938;SDS011;67136;47.546;21.630;2023-04-03T14:24:01;12.93;;;1.50;;
77938;SDS011;67136;47.546;21.630;2023-04-03T14:27:05;14.05;;;1.55;;
77938;SDS011;67136;47.546;21.630;2023-04-03T14:30:24;16.80;;;1.80;;
77938;SDS011;67136;47.546;21.630;2023-04-03T14:33:34;16.10;;;1.80;;
77938;SDS011;67136;47.546;21.630;2023-04-03T14:36:38;17.02;;;2.30;;
77938;SDS011;67136;47.546;21.630;2023-04-03T14:39:43;24.87;;;2.20;;
77938;SDS011;67136;47.546;21.630;2023-04-03T14:42:47;15.05;;;1.87;;
77938;SDS011;67136;47.546;21.630;2023-04-03T14:45:50;19.05;;;2.50;;
77938;SDS011;67136;47.546;21.630;2023-04-03T14:48:53;12.13;;;1.45;;
77938;SDS011;67136;47.546;21.630;2023-04-03T14:51:57;22.00;;;2.20;;
77938;SDS011;67136;47.546;21.630;2023-04-03T14:55:00;18.07;;;1.93;;
77938;SDS011;67136;47.546;21.630;2023-04-03T14:58:04;18.48;;;2.05;;
77938;SDS011;67136;47.546;21.630;2023-04-03T15:01:08;18.08;;;2.10;;
77938;SDS011;67136;47.546;21.630;2023-04-03T15:04:16;13.55;;;1.80;;
77938;SDS011;67136;47.546;21.630;2023-04-03T15:07:21;30.70;;;2.73;;
77938;SDS011;67136;47.546;21.630;2023-04-03T15:10:27;28.43;;;2.63;;
77938;SDS011;67136;47.546;21.630;2023-04-03T15:13:31;29.58;;;3.22;;
77938;SDS011;67136;47.546;21.630;2023-04-03T15:16:34;25.83;;;2.10;;
77938;SDS011;67136;47.546;21.630;2023-04-03T15:19:37;25.25;;;2.28;;
77938;SDS011;67136;47.546;21.630;2023-04-03T15:22:40;26.23;;;2.47;;
77938;SDS011;67136;47.546;21.630;2023-04-03T15:25:43;15.70;;;2.50;;
77938;SDS011;67136;47.546;21.630;2023-04-03T15:28:48;10.73;;;1.58;;
77938;SDS011;67136;47.546;21.630;2023-04-03T15:31:50;16.15;;;2.10;;
77938;SDS011;67136;47.546;21.630;2023-04-03T15:34:55;14.80;;;1.60;;
77938;SDS011;67136;47.546;21.630;2023-04-03T15:37:58;16.10;;;2.40;;
77938;SDS011;67136;47.546;21.630;2023-04-03T15:41:00;22.93;;;2.20;;
77938;SDS011;67136;47.546;21.630;2023-04-03T15:44:03;15.13;;;2.00;;
77938;SDS011;67136;47.546;21.630;2023-04-03T15:47:06;18.37;;;3.60;;
77938;SDS011;67136;47.546;21.630;2023-04-03T15:50:08;13.30;;;2.45;;
77938;SDS011;67136;47.546;21.630;2023-04-03T15:53:11;14.27;;;2.03;;
77938;SDS011;67136;47.546;21.630;2023-04-03T15:56:14;16.23;;;1.77;;
77938;SDS011;67136;47.546;21.630;2023-04-03T15:59:16;8.07;;;1.70;;
77938;SDS011;67136;47.546;21.630;2023-04-03T16:02:19;15.52;;;1.60;;
77938;SDS011;67136;47.546;21.630;2023-04-03T16:05:23;24.00;;;1.98;;
77938;SDS011;67136;47.546;21.630;2023-04-03T16:08:27;11.13;;;2.30;;
77938;SDS011;67136;47.546;21.630;2023-04-03T16:11:30;13.10;;;1.73;;
77938;SDS011;67136;47.546;21.630;2023-04-03T16:14:32;9.98;;;2.12;;
77938;SDS011;67136;47.546;21.630;2023-04-03T16:17:35;11.38;;;2.55;;
77938;SDS011;67136;47.546;21.630;2023-04-03T16:20:39;18.77;;;2.00;;
77938;SDS011;67136;47.546;21.630;2023-04-03T16:23:43;15.97;;;2.30;;
77938;SDS011;67136;47.546;21.630;2023-04-03T16:26:46;18.20;;;2.30;;
77938;SDS011;67136;47.546;21.630;2023-04-03T16:29:49;8.23;;;1.83;;
77938;SDS011;67136;47.546;21.630;2023-04-03T16:32:51;13.18;;;1.98;;
77938;SDS011;67136;47.546;21.630;2023-04-03T16:35:55;7.90;;;1.58;;
77938;SDS011;67136;47.546;21.630;2023-04-03T16:38:58;15.00;;;1.70;;
77938;SDS011;67136;47.546;21.630;2023-04-03T16:42:00;16.83;;;1.83;;
77938;SDS011;67136;47.546;21.630;2023-04-03T16:45:03;17.67;;;2.25;;
77938;SDS011;67136;47.546;21.630;2023-04-03T16:48:07;15.48;;;2.53;;
77938;SDS011;67136;47.546;21.630;2023-04-03T16:51:09;15.13;;;1.98;;
77938;SDS011;67136;47.546;21.630;2023-04-03T16:54:13;15.93;;;2.23;;
77938;SDS011;67136;47.546;21.630;2023-04-03T16:57:16;16.60;;;2.10;;
77938;SDS011;67136;47.546;21.630;2023-04-03T17:00:21;15.10;;;2.10;;
77938;SDS011;67136;47.546;21.630;2023-04-03T17:03:24;10.75;;;1.80;;
77938;SDS011;67136;47.546;21.630;2023-04-03T17:06:28;16.65;;;1.77;;
77938;SDS011;67136;47.546;21.630;2023-04-03T17:09:31;22.27;;;2.17;;
77938;SDS011;67136;47.546;21.630;2023-04-03T17:12:34;19.00;;;2.37;;
77938;SDS011;67136;47.546;21.630;2023-04-03T17:15:37;14.25;;;2.03;;
77938;SDS011;67136;47.546;21.630;2023-04-03T17:18:40;11.95;;;1.85;;
77938;SDS011;67136;47.546;21.630;2023-04-03T17:21:43;12.35;;;2.28;;
77938;SDS011;67136;47.546;21.630;2023-04-03T17:24:47;8.77;;;2.00;;
77938;SDS011;67136;47.546;21.630;2023-04-03T17:27:50;15.70;;;2.20;;
77938;SDS011;67136;47.546;21.630;2023-04-03T17:30:56;7.37;;;2.17;;
77938;SDS011;67136;47.546;21.630;2023-04-03T17:34:00;11.95;;;2.28;;
77938;SDS011;67136;47.546;21.630;2023-04-03T17:37:06;19.73;;;3.10;;
77938;SDS011;67136;47.546;21.630;2023-04-03T17:40:09;13.00;;;2.17;;
77938;SDS011;67136;47.546;21.630;2023-04-03T17:43:15;9.00;;;1.90;;
77938;SDS011;67136;47.546;21.630;2023-04-03T17:46:18;10.15;;;1.95;;
77938;SDS011;67136;47.546;21.630;2023-04-03T17:49:21;5.85;;;1.90;;
77938;SDS011;67136;47.546;21.630;2023-04-03T17:52:23;12.10;;;2.33;;
77938;SDS011;67136;47.546;21.630;2023-04-03T17:55:29;12.83;;;2.20;;
77938;SDS011;67136;47.546;21.630;2023-04-03T17:58:32;11.23;;;2.33;;
77938;SDS011;67136;47.546;21.630;2023-04-03T18:01:34;13.32;;;2.20;;
77938;SDS011;67136;47.546;21.630;2023-04-03T18:04:38;11.15;;;2.10;;
77938;SDS011;67136;47.546;21.630;2023-04-03T18:07:40;5.62;;;2.10;;
77938;SDS011;67136;47.546;21.630;2023-04-03T18:10:43;5.03;;;1.63;;
77938;SDS011;67136;47.546;21.630;2023-04-03T18:13:46;7.53;;;1.90;;
77938;SDS011;67136;47.546;21.630;2023-04-03T18:16:50;7.47;;;1.58;;
77938;SDS011;67136;47.546;21.630;2023-04-03T18:19:52;19.50;;;2.53;;
77938;SDS011;67136;47.546;21.630;2023-04-03T18:22:55;9.90;;;1.80;;
77938;SDS011;67136;47.546;21.630;2023-04-03T18:25:58;12.40;;;2.00;;
77938;SDS011;67136;47.546;21.630;2023-04-03T18:29:04;6.23;;;1.63;;
77938;SDS011;67136;47.546;21.630;2023-04-03T18:32:11;7.20;;;1.70;;
77938;SDS011;67136;47.546;21.630;2023-04-03T18:35:16;5.28;;;2.03;;
77938;SDS011;67136;47.546;21.630;2023-04-03T18:38:18;3.85;;;1.30;;
77938;SDS011;67136;47.546;21.630;2023-04-03T18:41:22;3.70;;;1.87;;
77938;SDS011;67136;47.546;21.630;2023-04-03T18:44:28;5.67;;;1.77;;
77938;SDS011;67136;47.546;21.630;2023-04-03T18:47:32;10.52;;;2.00;;
77938;SDS011;67136;47.546;21.630;2023-04-03T18:50:35;4.45;;;1.80;;
77938;SDS011;67136;47.546;21.630;2023-04-03T18:53:38;4.65;;;1.73;;
77938;SDS011;67136;47.546;21.630;2023-04-03T18:56:45;4.80;;;1.80;;
77938;SDS011;67136;47.546;21.630;2023-04-03T18:59:48;5.33;;;1.50;;
77938;SDS011;67136;47.546;21.630;2023-04-03T19:02:51;8.77;;;1.70;;
77938;SDS011;67136;47.546;21.630;2023-04-03T19:05:54;5.45;;;1.70;;
77938;SDS011;67136;47.546;21.630;2023-04-03T19:08:57;3.95;;;1.65;;
77938;SDS011;67136;47.546;21.630;2023-04-03T19:12:00;7.50;;;2.03;;
77938;SDS011;67136;47.546;21.630;2023-04-03T19:15:03;6.70;;;1.80;;
77938;SDS011;67136;47.546;21.630;2023-04-03T19:18:06;3.90;;;1.50;;
77938;SDS011;67136;47.546;21.630;2023-04-03T19:21:09;6.40;;;2.00;;
77938;SDS011;67136;47.546;21.630;2023-04-03T19:24:12;4.15;;;1.60;;
77938;SDS011;67136;47.546;21.630;2023-04-03T19:27:14;6.50;;;2.50;;
77938;SDS011;67136;47.546;21.630;2023-04-03T19:30:17;8.63;;;1.77;;
77938;SDS011;67136;47.546;21.630;2023-04-03T19:33:20;5.00;;;1.90;;